sensor_id;sensor_type;location;lat;lon;timestamp;pressure;altitude;pressure_sealevel;temperature
19196;BMP280;9730;48.926;11.376;2023-07-20T00:02:19;97030.28;;;16.58
19196;BMP280;9730;48.926;11.376;2023-07-20T00:04:47;97031.75;;;16.61
19196;BMP280;9730;48.926;11.376;2023-07-20T00:07:14;97032.22;;;16.66
19196;BMP280;9730;48.926;11.376;2023-07-20T00:09:42;97033.28;;;16.20
19196;BMP280;9730;48.926;11.376;2023-07-20T00:12:10;97028.56;;;16.48
19196;BMP280;9730;48.926;11.376;2023-07-20T00:14:38;97034.31;;;16.06
19196;BMP280;9730;48.926;11.376;2023-07-20T00:17:07;97019.41;;;16.35
19196;BMP280;9730;48.926;11.376;2023-07-20T00:19:35;97032.13;;;16.46
19196;BMP280;9730;48.926;11.376;2023-07-20T00:22:03;97027.97;;;16.12
19196;BMP280;9730;48.926;11.376;2023-07-20T00:24:31;97024.00;;;15.86
19196;BMP280;9730;48.926;11.376;2023-07-20T00:27:00;97027.47;;;16.07
19196;BMP280;9730;48.926;11.376;2023-07-20T00:29:29;97028.75;;;16.12
19196;BMP280;9730;48.926;11.376;2023-07-20T00:31:58;97021.00;;;16.14
19196;BMP280;9730;48.926;11.376;2023-07-20T00:34:27;97021.75;;;16.38
19196;BMP280;9730;48.926;11.376;2023-07-20T00:36:55;97024.50;;;16.13
19196;BMP280;9730;48.926;11.376;2023-07-20T00:39:23;97027.84;;;16.13
19196;BMP280;9730;48.926;11.376;2023-07-20T00:41:51;97033.41;;;16.18
19196;BMP280;9730;48.926;11.376;2023-07-20T00:44:19;97036.19;;;16.26
19196;BMP280;9730;48.926;11.376;2023-07-20T00:46:47;97019.41;;;16.13
19196;BMP280;9730;48.926;11.376;2023-07-20T00:49:16;97038.06;;;15.68
19196;BMP280;9730;48.926;11.376;2023-07-20T00:51:49;97021.41;;;15.53
19196;BMP280;9730;48.926;11.376;2023-07-20T00:54:17;97010.22;;;15.78
19196;BMP280;9730;48.926;11.376;2023-07-20T00:56:46;97002.13;;;15.84
19196;BMP280;9730;48.926;11.376;2023-07-20T00:59:14;97009.88;;;15.82
19196;BMP280;9730;48.926;11.376;2023-07-20T01:01:42;97011.31;;;15.41
19196;BMP280;9730;48.926;11.376;2023-07-20T01:04:10;97007.56;;;15.34
19196;BMP280;9730;48.926;11.376;2023-07-20T01:06:44;97005.41;;;15.41
19196;BMP280;9730;48.926;11.376;2023-07-20T01:09:18;97003.38;;;15.56
19196;BMP280;9730;48.926;11.376;2023-07-20T01:11:55;96997.03;;;15.62
19196;BMP280;9730;48.926;11.376;2023-07-20T01:14:25;97004.53;;;15.52
19196;BMP280;9730;48.926;11.376;2023-07-20T01:16:53;97011.34;;;15.63
19196;BMP280;9730;48.926;11.376;2023-07-20T01:19:21;97003.19;;;15.70
19196;BMP280;9730;48.926;11.376;2023-07-20T01:21:53;96998.31;;;15.78
19196;BMP280;9730;48.926;11.376;2023-07-20T01:27:48;97011.13;;;15.77
19196;BMP280;9730;48.926;11.376;2023-07-20T01:30:34;97018.31;;;15.72
19196;BMP280;9730;48.926;11.376;2023-07-20T01:33:06;97014.78;;;15.40
19196;BMP280;9730;48.926;11.376;2023-07-20T01:35:36;97019.25;;;15.37
19196;BMP280;9730;48.926;11.376;2023-07-20T01:38:06;97009.13;;;15.47
19196;BMP280;9730;48.926;11.376;2023-07-20T01:40:34;97007.53;;;15.57
19196;BMP280;9730;48.926;11.376;2023-07-20T01:43:03;97006.38;;;15.27
19196;BMP280;9730;48.926;11.376;2023-07-20T01:45:31;97009.41;;;15.09
19196;BMP280;9730;48.926;11.376;2023-07-20T01:47:59;96994.97;;;15.33
19196;BMP280;9730;48.926;11.376;2023-07-20T01:50:29;97000.44;;;15.39
19196;BMP280;9730;48.926;11.376;2023-07-20T01:52:58;97008.97;;;15.38
19196;BMP280;9730;48.926;11.376;2023-07-20T01:55:26;97008.78;;;15.41
19196;BMP280;9730;48.926;11.376;2023-07-20T01:57:54;97015.38;;;15.54
19196;BMP280;9730;48.926;11.376;2023-07-20T02:00:22;97023.19;;;15.41
19196;BMP280;9730;48.926;11.376;2023-07-20T02:02:52;97023.22;;;15.51
19196;BMP280;9730;48.926;11.376;2023-07-20T02:05:20;97021.41;;;15.64
19196;BMP280;9730;48.926;11.376;2023-07-20T02:07:49;97016.53;;;15.61
19196;BMP280;9730;48.926;11.376;2023-07-20T02:10:19;97014.94;;;15.60
19196;BMP280;9730;48.926;11.376;2023-07-20T02:12:47;97021.19;;;15.67
19196;BMP280;9730;48.926;11.376;2023-07-20T02:15:15;97021.06;;;15.58
19196;BMP280;9730;48.926;11.376;2023-07-20T02:17:43;97018.63;;;15.56
19196;BMP280;9730;48.926;11.376;2023-07-20T02:20:11;97025.91;;;15.61
19196;BMP280;9730;48.926;11.376;2023-07-20T02:22:39;97018.44;;;15.70
19196;BMP280;9730;48.926;11.376;2023-07-20T02:25:08;97029.91;;;15.42
19196;BMP280;9730;48.926;11.376;2023-07-20T02:27:37;97019.00;;;15.29
19196;BMP280;9730;48.926;11.376;2023-07-20T02:30:07;97023.28;;;15.16
19196;BMP280;9730;48.926;11.376;2023-07-20T02:32:36;97019.63;;;15.43
19196;BMP280;9730;48.926;11.376;2023-07-20T02:35:04;97009.66;;;15.29
19196;BMP280;9730;48.926;11.376;2023-07-20T02:37:32;97019.63;;;15.43
19196;BMP280;9730;48.926;11.376;2023-07-20T02:40:00;97017.22;;;15.52
19196;BMP280;9730;48.926;11.376;2023-07-20T02:42:31;97019.50;;;15.44
19196;BMP280;9730;48.926;11.376;2023-07-20T02:44:59;97026.78;;;15.49
19196;BMP280;9730;48.926;11.376;2023-07-20T02:47:27;97026.63;;;15.40
19196;BMP280;9730;48.926;11.376;2023-07-20T02:49:54;97033.13;;;15.43
19196;BMP280;9730;48.926;11.376;2023-07-20T02:52:22;97033.00;;;15.11
19196;BMP280;9730;48.926;11.376;2023-07-20T02:54:50;97040.34;;;15.03
19196;BMP280;9730;48.926;11.376;2023-07-20T02:57:18;97035.72;;;15.08
19196;BMP280;9730;48.926;11.376;2023-07-20T02:59:47;97034.81;;;15.09
19196;BMP280;9730;48.926;11.376;2023-07-20T03:02:15;97039.47;;;14.91
19196;BMP280;9730;48.926;11.376;2023-07-20T03:04:43;97034.97;;;14.72
19196;BMP280;9730;48.926;11.376;2023-07-20T03:07:11;97027.81;;;14.53
19196;BMP280;9730;48.926;11.376;2023-07-20T03:09:39;97006.59;;;14.54
19196;BMP280;9730;48.926;11.376;2023-07-20T03:12:08;96999.06;;;14.65
19196;BMP280;9730;48.926;11.376;2023-07-20T03:14:36;96991.53;;;14.87
19196;BMP280;9730;48.926;11.376;2023-07-20T03:17:05;96995.97;;;14.96
19196;BMP280;9730;48.926;11.376;2023-07-20T03:19:33;96998.06;;;15.02
19196;BMP280;9730;48.926;11.376;2023-07-20T03:22:01;97012.28;;;14.81
19196;BMP280;9730;48.926;11.376;2023-07-20T03:24:29;97010.09;;;15.00
19196;BMP280;9730;48.926;11.376;2023-07-20T03:26:57;97014.44;;;14.98
19196;BMP280;9730;48.926;11.376;2023-07-20T03:29:26;97009.53;;;14.84
19196;BMP280;9730;48.926;11.376;2023-07-20T03:31:54;97016.78;;;14.78
19196;BMP280;9730;48.926;11.376;2023-07-20T03:34:23;97021.13;;;14.76
19196;BMP280;9730;48.926;11.376;2023-07-20T03:36:51;97017.44;;;14.56
19196;BMP280;9730;48.926;11.376;2023-07-20T03:39:19;97018.78;;;14.49
19196;BMP280;9730;48.926;11.376;2023-07-20T03:41:46;97004.81;;;14.67
19196;BMP280;9730;48.926;11.376;2023-07-20T03:44:14;97003.38;;;14.76
19196;BMP280;9730;48.926;11.376;2023-07-20T03:46:43;97013.69;;;14.85
19196;BMP280;9730;48.926;11.376;2023-07-20T03:49:11;97021.53;;;14.82
19196;BMP280;9730;48.926;11.376;2023-07-20T03:51:40;97021.19;;;14.87
19196;BMP280;9730;48.926;11.376;2023-07-20T03:54:08;97027.63;;;15.03
19196;BMP280;9730;48.926;11.376;2023-07-20T03:56:35;97032.94;;;15.00
19196;BMP280;9730;48.926;11.376;2023-07-20T03:59:03;97029.41;;;15.13
19196;BMP280;9730;48.926;11.376;2023-07-20T04:01:31;97033.50;;;15.03
19196;BMP280;9730;48.926;11.376;2023-07-20T04:04:06;97042.88;;;15.03
19196;BMP280;9730;48.926;11.376;2023-07-20T04:06:34;97041.72;;;15.19
19196;BMP280;9730;48.926;11.376;2023-07-20T04:09:03;97039.47;;;15.38
19196;BMP280;9730;48.926;11.376;2023-07-20T04:11:32;97053.91;;;15.38
19196;BMP280;9730;48.926;11.376;2023-07-20T04:14:00;97056.66;;;15.35
19196;BMP280;9730;48.926;11.376;2023-07-20T04:16:28;97058.59;;;15.31
19196;BMP280;9730;48.926;11.376;2023-07-20T04:18:56;97058.03;;;15.28
19196;BMP280;9730;48.926;11.376;2023-07-20T04:21:26;97061.91;;;15.44
19196;BMP280;9730;48.926;11.376;2023-07-20T04:23:55;97053.16;;;15.25
19196;BMP280;9730;48.926;11.376;2023-07-20T04:26:25;97074.22;;;15.14
19196;BMP280;9730;48.926;11.376;2023-07-20T04:28:52;97068.31;;;15.26
19196;BMP280;9730;48.926;11.376;2023-07-20T04:31:31;97060.56;;;15.28
19196;BMP280;9730;48.926;11.376;2023-07-20T04:34:00;97062.44;;;15.37
19196;BMP280;9730;48.926;11.376;2023-07-20T04:36:29;97055.47;;;15.51
19196;BMP280;9730;48.926;11.376;2023-07-20T04:38:57;97059.53;;;15.64
19196;BMP280;9730;48.926;11.376;2023-07-20T04:41:26;97063.16;;;15.73
19196;BMP280;9730;48.926;11.376;2023-07-20T04:43:56;97067.88;;;15.66
19196;BMP280;9730;48.926;11.376;2023-07-20T04:46:27;97062.13;;;15.86
19196;BMP280;9730;48.926;11.376;2023-07-20T04:48:56;97062.31;;;16.17
19196;BMP280;9730;48.926;11.376;2023-07-20T04:51:25;97077.97;;;16.24
19196;BMP280;9730;48.926;11.376;2023-07-20T04:53:54;97077.75;;;16.38
19196;BMP280;9730;48.926;11.376;2023-07-20T04:56:25;97090.34;;;16.28
19196;BMP280;9730;48.926;11.376;2023-07-20T04:58:55;97092.06;;;16.39
19196;BMP280;9730;48.926;11.376;2023-07-20T05:01:23;97092.91;;;16.50
19196;BMP280;9730;48.926;11.376;2023-07-20T05:03:51;97100.38;;;16.73
19196;BMP280;9730;48.926;11.376;2023-07-20T05:06:20;97106.41;;;16.83
19196;BMP280;9730;48.926;11.376;2023-07-20T05:08:48;97115.88;;;16.92
19196;BMP280;9730;48.926;11.376;2023-07-20T05:11:16;97116.38;;;16.86
19196;BMP280;9730;48.926;11.376;2023-07-20T05:13:45;97110.88;;;17.12
19196;BMP280;9730;48.926;11.376;2023-07-20T05:16:13;97109.94;;;17.24
19196;BMP280;9730;48.926;11.376;2023-07-20T05:18:40;97101.44;;;17.46
19196;BMP280;9730;48.926;11.376;2023-07-20T05:21:09;97118.31;;;17.58
19196;BMP280;9730;48.926;11.376;2023-07-20T05:23:36;97106.56;;;17.66
19196;BMP280;9730;48.926;11.376;2023-07-20T05:26:04;97103.72;;;17.80
19196;BMP280;9730;48.926;11.376;2023-07-20T05:28:32;97102.41;;;18.06
19196;BMP280;9730;48.926;11.376;2023-07-20T05:31:03;97104.31;;;18.24
19196;BMP280;9730;48.926;11.376;2023-07-20T05:33:31;97085.78;;;18.31
19196;BMP280;9730;48.926;11.376;2023-07-20T05:35:59;97091.31;;;18.66
19196;BMP280;9730;48.926;11.376;2023-07-20T05:38:27;97088.69;;;18.86
19196;BMP280;9730;48.926;11.376;2023-07-20T05:40:59;97083.50;;;18.97
19196;BMP280;9730;48.926;11.376;2023-07-20T05:43:27;97094.47;;;19.18
19196;BMP280;9730;48.926;11.376;2023-07-20T05:45:55;97083.59;;;19.54
19196;BMP280;9730;48.926;11.376;2023-07-20T05:48:24;97069.97;;;19.81
19196;BMP280;9730;48.926;11.376;2023-07-20T05:50:52;97071.88;;;19.61
19196;BMP280;9730;48.926;11.376;2023-07-20T05:53:20;97066.22;;;19.76
19196;BMP280;9730;48.926;11.376;2023-07-20T05:55:52;97061.63;;;19.89
19196;BMP280;9730;48.926;11.376;2023-07-20T05:58:19;97040.06;;;20.01
19196;BMP280;9730;48.926;11.376;2023-07-20T06:00:48;97055.03;;;19.86
19196;BMP280;9730;48.926;11.376;2023-07-20T06:03:16;97038.44;;;20.09
19196;BMP280;9730;48.926;11.376;2023-07-20T06:05:45;97048.81;;;20.44
19196;BMP280;9730;48.926;11.376;2023-07-20T06:08:13;97003.91;;;21.55
19196;BMP280;9730;48.926;11.376;2023-07-20T06:10:40;96977.91;;;22.75
19196;BMP280;9730;48.926;11.376;2023-07-20T06:13:10;96966.28;;;23.28
19196;BMP280;9730;48.926;11.376;2023-07-20T06:15:37;96960.50;;;23.65
19196;BMP280;9730;48.926;11.376;2023-07-20T06:18:05;96941.69;;;24.19
19196;BMP280;9730;48.926;11.376;2023-07-20T06:20:33;96910.44;;;25.13
19196;BMP280;9730;48.926;11.376;2023-07-20T06:23:02;96918.16;;;24.90
19196;BMP280;9730;48.926;11.376;2023-07-20T06:25:30;96924.94;;;24.39
19196;BMP280;9730;48.926;11.376;2023-07-20T06:27:58;96907.97;;;24.97
19196;BMP280;9730;48.926;11.376;2023-07-20T06:30:25;96927.38;;;24.85
19196;BMP280;9730;48.926;11.376;2023-07-20T06:32:53;96924.06;;;24.99
19196;BMP280;9730;48.926;11.376;2023-07-20T06:35:21;96962.38;;;24.11
19196;BMP280;9730;48.926;11.376;2023-07-20T06:37:48;96936.69;;;24.94
19196;BMP280;9730;48.926;11.376;2023-07-20T06:40:18;96937.69;;;24.62
19196;BMP280;9730;48.926;11.376;2023-07-20T06:42:48;96934.91;;;24.72
19196;BMP280;9730;48.926;11.376;2023-07-20T06:45:20;96918.84;;;25.15
19196;BMP280;9730;48.926;11.376;2023-07-20T06:47:48;96907.16;;;24.96
19196;BMP280;9730;48.926;11.376;2023-07-20T06:50:16;96906.75;;;24.85
19196;BMP280;9730;48.926;11.376;2023-07-20T06:52:44;96916.59;;;25.12
19196;BMP280;9730;48.926;11.376;2023-07-20T06:57:43;96889.16;;;25.47
19196;BMP280;9730;48.926;11.376;2023-07-20T07:00:13;96831.72;;;27.35
19196;BMP280;9730;48.926;11.376;2023-07-20T07:02:41;96827.84;;;27.80
19196;BMP280;9730;48.926;11.376;2023-07-20T07:05:08;96812.19;;;27.33
19196;BMP280;9730;48.926;11.376;2023-07-20T07:07:39;96882.19;;;25.84
19196;BMP280;9730;48.926;11.376;2023-07-20T07:10:07;96958.06;;;23.88
19196;BMP280;9730;48.926;11.376;2023-07-20T07:12:35;96988.19;;;23.79
19196;BMP280;9730;48.926;11.376;2023-07-20T07:15:04;96971.25;;;24.77
19196;BMP280;9730;48.926;11.376;2023-07-20T07:17:33;96972.19;;;24.54
19196;BMP280;9730;48.926;11.376;2023-07-20T07:20:01;96925.25;;;25.92
19196;BMP280;9730;48.926;11.376;2023-07-20T07:22:30;96932.00;;;25.19
19196;BMP280;9730;48.926;11.376;2023-07-20T07:24:58;96918.03;;;27.01
19196;BMP280;9730;48.926;11.376;2023-07-20T07:27:26;96865.44;;;26.79
19196;BMP280;9730;48.926;11.376;2023-07-20T07:29:53;96894.59;;;26.32
19196;BMP280;9730;48.926;11.376;2023-07-20T07:32:23;96889.25;;;26.19
19196;BMP280;9730;48.926;11.376;2023-07-20T07:34:51;96853.63;;;26.91
19196;BMP280;9730;48.926;11.376;2023-07-20T07:37:19;96879.88;;;26.32
19196;BMP280;9730;48.926;11.376;2023-07-20T07:39:47;96886.47;;;26.06
19196;BMP280;9730;48.926;11.376;2023-07-20T07:42:14;96814.81;;;27.12
19196;BMP280;9730;48.926;11.376;2023-07-20T07:44:42;96802.38;;;28.36
19196;BMP280;9730;48.926;11.376;2023-07-20T07:47:10;96815.31;;;27.89
19196;BMP280;9730;48.926;11.376;2023-07-20T07:49:40;96894.84;;;25.94
19196;BMP280;9730;48.926;11.376;2023-07-20T07:52:08;96857.66;;;27.15
19196;BMP280;9730;48.926;11.376;2023-07-20T07:54:36;96868.69;;;27.78
19196;BMP280;9730;48.926;11.376;2023-07-20T07:57:04;96861.69;;;26.82
19196;BMP280;9730;48.926;11.376;2023-07-20T07:59:32;96788.13;;;28.85
19196;BMP280;9730;48.926;11.376;2023-07-20T08:02:04;96767.84;;;29.64
19196;BMP280;9730;48.926;11.376;2023-07-20T08:04:32;96760.50;;;29.36
19196;BMP280;9730;48.926;11.376;2023-07-20T08:07:04;96699.31;;;30.40
19196;BMP280;9730;48.926;11.376;2023-07-20T08:09:32;96774.44;;;29.67
19196;BMP280;9730;48.926;11.376;2023-07-20T08:12:00;96666.31;;;31.89
19196;BMP280;9730;48.926;11.376;2023-07-20T08:14:28;96644.97;;;32.10
19196;BMP280;9730;48.926;11.376;2023-07-20T08:16:55;96584.81;;;33.14
19196;BMP280;9730;48.926;11.376;2023-07-20T08:19:23;96625.78;;;33.25
19196;BMP280;9730;48.926;11.376;2023-07-20T08:21:51;96646.34;;;32.65
19196;BMP280;9730;48.926;11.376;2023-07-20T08:24:20;96618.13;;;32.10
19196;BMP280;9730;48.926;11.376;2023-07-20T08:26:47;96650.81;;;32.35
19196;BMP280;9730;48.926;11.376;2023-07-20T08:29:15;96678.56;;;31.89
19196;BMP280;9730;48.926;11.376;2023-07-20T08:31:43;96674.53;;;32.33
19196;BMP280;9730;48.926;11.376;2023-07-20T08:34:12;96632.16;;;32.61
19196;BMP280;9730;48.926;11.376;2023-07-20T08:36:46;96651.91;;;32.80
19196;BMP280;9730;48.926;11.376;2023-07-20T08:39:13;96707.47;;;31.16
19196;BMP280;9730;48.926;11.376;2023-07-20T08:41:43;96700.81;;;31.02
19196;BMP280;9730;48.926;11.376;2023-07-20T08:44:11;96726.59;;;30.79
19196;BMP280;9730;48.926;11.376;2023-07-20T08:46:40;96707.72;;;30.66
19196;BMP280;9730;48.926;11.376;2023-07-20T08:49:08;96753.03;;;29.71
19196;BMP280;9730;48.926;11.376;2023-07-20T08:51:36;96728.63;;;30.77
19196;BMP280;9730;48.926;11.376;2023-07-20T08:54:04;96699.81;;;32.22
19196;BMP280;9730;48.926;11.376;2023-07-20T08:56:33;96743.19;;;30.61
19196;BMP280;9730;48.926;11.376;2023-07-20T08:59:02;96736.50;;;29.47
19196;BMP280;9730;48.926;11.376;2023-07-20T09:01:31;96789.25;;;28.57
19196;BMP280;9730;48.926;11.376;2023-07-20T09:03:59;96834.81;;;28.26
19196;BMP280;9730;48.926;11.376;2023-07-20T09:06:27;96826.56;;;28.69
19196;BMP280;9730;48.926;11.376;2023-07-20T09:08:55;96779.50;;;29.30
19196;BMP280;9730;48.926;11.376;2023-07-20T09:11:23;96700.28;;;29.64
19196;BMP280;9730;48.926;11.376;2023-07-20T09:14:03;96702.16;;;30.56
19196;BMP280;9730;48.926;11.376;2023-07-20T09:16:32;96719.63;;;30.49
19196;BMP280;9730;48.926;11.376;2023-07-20T09:19:00;96707.97;;;31.42
19196;BMP280;9730;48.926;11.376;2023-07-20T09:21:29;96741.53;;;28.64
19196;BMP280;9730;48.926;11.376;2023-07-20T09:23:57;96766.66;;;28.38
19196;BMP280;9730;48.926;11.376;2023-07-20T09:26:25;96772.88;;;28.56
19196;BMP280;9730;48.926;11.376;2023-07-20T09:28:53;96731.13;;;29.48
19196;BMP280;9730;48.926;11.376;2023-07-20T09:31:23;96709.78;;;30.58
19196;BMP280;9730;48.926;11.376;2023-07-20T09:33:52;96656.66;;;31.43
19196;BMP280;9730;48.926;11.376;2023-07-20T09:36:23;96653.72;;;29.69
19196;BMP280;9730;48.926;11.376;2023-07-20T09:39:11;96713.00;;;29.29
19196;BMP280;9730;48.926;11.376;2023-07-20T09:41:41;96728.41;;;28.92
19196;BMP280;9730;48.926;11.376;2023-07-20T09:44:11;96794.31;;;28.12
19196;BMP280;9730;48.926;11.376;2023-07-20T09:46:44;96769.22;;;28.12
19196;BMP280;9730;48.926;11.376;2023-07-20T09:49:16;96741.34;;;28.46
19196;BMP280;9730;48.926;11.376;2023-07-20T09:51:48;96686.56;;;30.80
19196;BMP280;9730;48.926;11.376;2023-07-20T09:54:17;96652.78;;;31.70
19196;BMP280;9730;48.926;11.376;2023-07-20T09:56:45;96637.00;;;31.65
19196;BMP280;9730;48.926;11.376;2023-07-20T09:59:14;96597.03;;;32.11
19196;BMP280;9730;48.926;11.376;2023-07-20T10:01:43;96667.91;;;31.08
19196;BMP280;9730;48.926;11.376;2023-07-20T10:04:13;96619.56;;;32.58
19196;BMP280;9730;48.926;11.376;2023-07-20T10:06:42;96560.06;;;33.44
19196;BMP280;9730;48.926;11.376;2023-07-20T10:09:12;96548.53;;;34.17
19196;BMP280;9730;48.926;11.376;2023-07-20T10:11:49;96554.00;;;32.66
19196;BMP280;9730;48.926;11.376;2023-07-20T10:14:23;96553.97;;;34.65
19196;BMP280;9730;48.926;11.376;2023-07-20T10:16:55;96563.94;;;33.86
19196;BMP280;9730;48.926;11.376;2023-07-20T10:19:27;96529.88;;;34.84
19196;BMP280;9730;48.926;11.376;2023-07-20T10:22:00;96524.59;;;34.09
19196;BMP280;9730;48.926;11.376;2023-07-20T10:24:31;96508.00;;;33.71
19196;BMP280;9730;48.926;11.376;2023-07-20T10:27:00;96496.38;;;34.86
19196;BMP280;9730;48.926;11.376;2023-07-20T10:29:29;96569.16;;;32.34
19196;BMP280;9730;48.926;11.376;2023-07-20T10:31:58;96579.84;;;32.22
19196;BMP280;9730;48.926;11.376;2023-07-20T10:34:27;96606.81;;;31.10
19196;BMP280;9730;48.926;11.376;2023-07-20T10:36:55;96695.44;;;29.11
19196;BMP280;9730;48.926;11.376;2023-07-20T10:39:23;96714.41;;;29.81
19196;BMP280;9730;48.926;11.376;2023-07-20T10:41:57;96674.69;;;30.05
19196;BMP280;9730;48.926;11.376;2023-07-20T10:44:26;96647.03;;;30.17
19196;BMP280;9730;48.926;11.376;2023-07-20T10:47:00;96664.34;;;29.55
19196;BMP280;9730;48.926;11.376;2023-07-20T10:49:28;96698.25;;;28.33
19196;BMP280;9730;48.926;11.376;2023-07-20T10:51:57;96726.88;;;27.52
19196;BMP280;9730;48.926;11.376;2023-07-20T10:54:34;96721.03;;;27.84
19196;BMP280;9730;48.926;11.376;2023-07-20T10:57:24;96654.19;;;29.53
19196;BMP280;9730;48.926;11.376;2023-07-20T10:59:51;96644.75;;;30.58
19196;BMP280;9730;48.926;11.376;2023-07-20T11:02:20;96631.78;;;30.51
19196;BMP280;9730;48.926;11.376;2023-07-20T11:04:48;96667.50;;;29.70
19196;BMP280;9730;48.926;11.376;2023-07-20T11:07:17;96710.59;;;27.65
19196;BMP280;9730;48.926;11.376;2023-07-20T11:10:12;96741.16;;;27.82
19196;BMP280;9730;48.926;11.376;2023-07-20T11:13:17;96697.03;;;28.22
19196;BMP280;9730;48.926;11.376;2023-07-20T11:15:46;96646.19;;;28.79
19196;BMP280;9730;48.926;11.376;2023-07-20T11:18:16;96705.19;;;27.53
19196;BMP280;9730;48.926;11.376;2023-07-20T11:20:50;96671.13;;;28.93
19196;BMP280;9730;48.926;11.376;2023-07-20T11:23:19;96638.06;;;29.39
19196;BMP280;9730;48.926;11.376;2023-07-20T11:25:47;96637.25;;;29.82
19196;BMP280;9730;48.926;11.376;2023-07-20T11:28:16;96607.47;;;30.15
19196;BMP280;9730;48.926;11.376;2023-07-20T11:30:43;96591.47;;;31.02
19196;BMP280;9730;48.926;11.376;2023-07-20T11:33:11;96582.19;;;31.24
19196;BMP280;9730;48.926;11.376;2023-07-20T11:35:44;96562.28;;;31.47
19196;BMP280;9730;48.926;11.376;2023-07-20T11:38:12;96566.34;;;32.25
19196;BMP280;9730;48.926;11.376;2023-07-20T11:40:42;96552.50;;;32.70
19196;BMP280;9730;48.926;11.376;2023-07-20T11:43:11;96527.91;;;32.66
19196;BMP280;9730;48.926;11.376;2023-07-20T11:45:42;96588.50;;;32.56
19196;BMP280;9730;48.926;11.376;2023-07-20T11:48:15;96611.69;;;28.72
19196;BMP280;9730;48.926;11.376;2023-07-20T11:50:44;96595.69;;;30.12
19196;BMP280;9730;48.926;11.376;2023-07-20T11:53:14;96611.25;;;29.88
19196;BMP280;9730;48.926;11.376;2023-07-20T11:55:42;96591.53;;;30.05
19196;BMP280;9730;48.926;11.376;2023-07-20T11:58:10;96598.13;;;28.51
19196;BMP280;9730;48.926;11.376;2023-07-20T12:00:38;96590.34;;;29.33
19196;BMP280;9730;48.926;11.376;2023-07-20T12:03:07;96564.56;;;29.69
19196;BMP280;9730;48.926;11.376;2023-07-20T12:05:36;96561.72;;;29.83
19196;BMP280;9730;48.926;11.376;2023-07-20T12:08:11;96512.66;;;28.88
19196;BMP280;9730;48.926;11.376;2023-07-20T12:10:39;96496.97;;;29.75
19196;BMP280;9730;48.926;11.376;2023-07-20T12:13:10;96503.66;;;29.96
19196;BMP280;9730;48.926;11.376;2023-07-20T12:15:38;96473.78;;;30.22
19196;BMP280;9730;48.926;11.376;2023-07-20T12:18:06;96562.75;;;29.39
19196;BMP280;9730;48.926;11.376;2023-07-20T12:20:35;96584.16;;;28.58
19196;BMP280;9730;48.926;11.376;2023-07-20T12:23:04;96595.13;;;28.73
19196;BMP280;9730;48.926;11.376;2023-07-20T12:25:42;96612.50;;;28.28
19196;BMP280;9730;48.926;11.376;2023-07-20T12:28:12;96584.75;;;28.47
19196;BMP280;9730;48.926;11.376;2023-07-20T12:30:40;96593.31;;;28.61
19196;BMP280;9730;48.926;11.376;2023-07-20T12:33:08;96598.78;;;29.16
19196;BMP280;9730;48.926;11.376;2023-07-20T12:35:36;96560.66;;;29.10
19196;BMP280;9730;48.926;11.376;2023-07-20T12:38:04;96548.25;;;28.55
19196;BMP280;9730;48.926;11.376;2023-07-20T12:40:33;96560.22;;;28.05
19196;BMP280;9730;48.926;11.376;2023-07-20T12:43:02;96571.59;;;27.97
19196;BMP280;9730;48.926;11.376;2023-07-20T12:45:31;96568.78;;;27.60
19196;BMP280;9730;48.926;11.376;2023-07-20T12:47:58;96554.72;;;27.23
19196;BMP280;9730;48.926;11.376;2023-07-20T12:50:26;96538.63;;;27.46
19196;BMP280;9730;48.926;11.376;2023-07-20T12:52:54;96545.03;;;27.57
19196;BMP280;9730;48.926;11.376;2023-07-20T12:55:22;96570.00;;;27.90
19196;BMP280;9730;48.926;11.376;2023-07-20T12:57:50;96572.63;;;28.09
19196;BMP280;9730;48.926;11.376;2023-07-20T13:00:19;96560.63;;;28.34
19196;BMP280;9730;48.926;11.376;2023-07-20T13:02:48;96548.66;;;27.56
19196;BMP280;9730;48.926;11.376;2023-07-20T13:05:33;96567.69;;;27.35
19196;BMP280;9730;48.926;11.376;2023-07-20T13:08:04;96564.38;;;27.54
19196;BMP280;9730;48.926;11.376;2023-07-20T13:10:35;96583.22;;;27.35
19196;BMP280;9730;48.926;11.376;2023-07-20T13:13:02;96576.78;;;27.78
19196;BMP280;9730;48.926;11.376;2023-07-20T13:15:39;96549.88;;;28.24
19196;BMP280;9730;48.926;11.376;2023-07-20T13:18:07;96537.94;;;27.85
19196;BMP280;9730;48.926;11.376;2023-07-20T13:20:35;96556.25;;;27.89
19196;BMP280;9730;48.926;11.376;2023-07-20T13:23:04;96562.63;;;27.81
19196;BMP280;9730;48.926;11.376;2023-07-20T13:25:32;96559.09;;;27.29
19196;BMP280;9730;48.926;11.376;2023-07-20T13:27:59;96537.94;;;27.12
19196;BMP280;9730;48.926;11.376;2023-07-20T13:30:27;96554.53;;;26.84
19196;BMP280;9730;48.926;11.376;2023-07-20T13:32:56;96565.66;;;27.25
19196;BMP280;9730;48.926;11.376;2023-07-20T13:35:24;96564.72;;;27.45
19196;BMP280;9730;48.926;11.376;2023-07-20T13:37:52;96558.63;;;27.65
19196;BMP280;9730;48.926;11.376;2023-07-20T13:40:20;96540.13;;;27.88
19196;BMP280;9730;48.926;11.376;2023-07-20T13:42:49;96533.91;;;27.88
19196;BMP280;9730;48.926;11.376;2023-07-20T13:45:17;96542.91;;;27.99
19196;BMP280;9730;48.926;11.376;2023-07-20T13:47:44;96561.28;;;27.25
19196;BMP280;9730;48.926;11.376;2023-07-20T13:50:14;96557.72;;;27.39
19196;BMP280;9730;48.926;11.376;2023-07-20T13:52:44;96538.38;;;26.42
19196;BMP280;9730;48.926;11.376;2023-07-20T13:55:12;96577.78;;;26.77
19196;BMP280;9730;48.926;11.376;2023-07-20T13:57:41;96573.00;;;26.81
19196;BMP280;9730;48.926;11.376;2023-07-20T14:00:10;96556.66;;;27.08
19196;BMP280;9730;48.926;11.376;2023-07-20T14:02:39;96541.78;;;27.29
19196;BMP280;9730;48.926;11.376;2023-07-20T14:05:09;96539.03;;;26.90
19196;BMP280;9730;48.926;11.376;2023-07-20T14:07:41;96522.28;;;27.27
19196;BMP280;9730;48.926;11.376;2023-07-20T14:10:10;96603.34;;;26.93
19196;BMP280;9730;48.926;11.376;2023-07-20T14:12:40;96600.13;;;26.91
19196;BMP280;9730;48.926;11.376;2023-07-20T14:15:09;96600.88;;;27.19
19196;BMP280;9730;48.926;11.376;2023-07-20T14:17:37;96615.81;;;27.17
19196;BMP280;9730;48.926;11.376;2023-07-20T14:20:06;96603.25;;;27.21
19196;BMP280;9730;48.926;11.376;2023-07-20T14:22:48;96566.97;;;26.68
19196;BMP280;9730;48.926;11.376;2023-07-20T14:25:17;96586.38;;;26.03
19196;BMP280;9730;48.926;11.376;2023-07-20T14:27:45;96611.31;;;26.37